PWSweather.com
Personal Weather Stations
Station Observations
UXOLA
Alcoy, AlcoyES

AlcoyAlcoyES

Lat: 38.70299, Lon: -0.48184

Elevation: 1935

Station Type: PCE FWS-20,

http://www.fiestasalcoy.xyz

High Low Average
Temperature 57.4°F14.1°C 38.5°F3.6°C 48.5°F9.2°C
Dew Point 37.0°F2.8°C 11.1°F-11.6°C 24.4°F-4.2°C
Winds 8.3 mph 13.4 kmh Calm Calm 3.0 mph SSE4.8 kmh SSE
Wind Gusts 10.7 mph17.2 kmh 1.6 mph2.6 kmh 5.0 mph8.0 kmh
Humidity 71% 23% 41%
Pressure 30.04 in1017.3 mb 29.83 in1010.2 mb -
Precipitation 0.00 in0.0 mm - -
Hour Temp Dew Point Humidity Winds Wind Gusts Pressure Precip Precip Rate Daily Precip Total
12:00 AM 48.2°F9.0°C 12.2°F-11.0°C 23% 3.8 mph WSW6.1 kmh WSW 7.6 mph12.2 kmh 30.04 in1017.3 mb 0.00 in0.0 mm 0.00 in0.0 mm 0.00 in0.0 mm
12:15 AM 48.2°F9.0°C 12.2°F-11.0°C 23% 3.1 mph WSW5.0 kmh WSW 7.6 mph12.2 kmh 30.04 in1017.3 mb 0.00 in0.0 mm 0.00 in0.0 mm 0.00 in0.0 mm
12:30 AM 47.8°F8.8°C 11.9°F-11.2°C 23% 4.5 mph WNW7.2 kmh WNW 6.0 mph9.7 kmh 30.04 in1017.3 mb 0.00 in0.0 mm 0.00 in0.0 mm 0.00 in0.0 mm
12:45 AM 47.8°F8.8°C 11.9°F-11.2°C 23% 5.4 mph WSW8.7 kmh WSW 9.2 mph14.8 kmh 30.04 in1017.3 mb 0.00 in0.0 mm 0.00 in0.0 mm 0.00 in0.0 mm
01:00 AM 48.2°F9.0°C 12.2°F-11.0°C 23% 6.0 mph W9.7 kmh W 8.3 mph13.4 kmh 30.04 in1017.3 mb 0.00 in0.0 mm 0.00 in0.0 mm 0.00 in0.0 mm
01:15 AM 48.7°F9.3°C 12.6°F-10.8°C 23% 3.8 mph WSW6.1 kmh WSW 7.6 mph12.2 kmh 30.03 in1016.9 mb 0.00 in0.0 mm 0.00 in0.0 mm 0.00 in0.0 mm
01:30 AM 48.9°F9.4°C 12.8°F-10.7°C 23% 3.8 mph WSW6.1 kmh WSW 7.6 mph12.2 kmh 30.04 in1017.3 mb 0.00 in0.0 mm 0.00 in0.0 mm 0.00 in0.0 mm
01:45 AM 48.7°F9.3°C 12.6°F-10.8°C 23% 2.2 mph WSW3.5 kmh WSW 5.4 mph8.7 kmh 30.03 in1016.9 mb 0.00 in0.0 mm 0.00 in0.0 mm 0.00 in0.0 mm
02:00 AM 46.9°F8.3°C 11.1°F-11.6°C 23% 0.7 mph WSW1.1 kmh WSW 2.2 mph3.5 kmh 30.03 in1016.9 mb 0.00 in0.0 mm 0.00 in0.0 mm 0.00 in0.0 mm
02:15 AM 45.3°F7.4°C 12.5°F-10.8°C 26% 2.2 mph W3.5 kmh W 3.8 mph6.1 kmh 30.03 in1016.9 mb 0.00 in0.0 mm 0.00 in0.0 mm 0.00 in0.0 mm
02:30 AM 46.9°F8.3°C 13.9°F-10.1°C 26% 1.6 mph WSW2.6 kmh WSW 3.1 mph5.0 kmh 30.02 in1016.6 mb 0.00 in0.0 mm 0.00 in0.0 mm 0.00 in0.0 mm
02:45 AM 45.0°F7.2°C 15.4°F-9.2°C 30% 0.7 mph WSW1.1 kmh WSW 2.2 mph3.5 kmh 30.01 in1016.3 mb 0.00 in0.0 mm 0.00 in0.0 mm 0.00 in0.0 mm
03:00 AM 43.7°F6.5°C 16.5°F-8.6°C 33% 1.6 mph SW2.6 kmh SW 3.1 mph5.0 kmh 30.01 in1016.3 mb 0.00 in0.0 mm 0.00 in0.0 mm 0.00 in0.0 mm
03:15 AM 44.8°F7.1°C 15.3°F-9.3°C 30% 1.6 mph WSW2.6 kmh WSW 3.1 mph5.0 kmh 30.01 in1016.3 mb 0.00 in0.0 mm 0.00 in0.0 mm 0.00 in0.0 mm
03:30 AM 43.3°F6.3°C 17.5°F-8.1°C 35% 1.6 mph SW2.6 kmh SW 2.2 mph3.5 kmh 30.01 in1016.3 mb 0.00 in0.0 mm 0.00 in0.0 mm 0.00 in0.0 mm
03:45 AM 42.3°F5.7°C 18.5°F-7.5°C 38% 0.7 mph SW1.1 kmh SW 2.2 mph3.5 kmh 30.01 in1016.3 mb 0.00 in0.0 mm 0.00 in0.0 mm 0.00 in0.0 mm
04:00 AM 41.0°F5.0°C 18.6°F-7.4°C 40% 1.6 mph NE2.6 kmh NE 3.1 mph5.0 kmh 30.00 in1015.9 mb 0.00 in0.0 mm 0.00 in0.0 mm 0.00 in0.0 mm
04:15 AM 40.5°F4.7°C 18.1°F-7.7°C 40% 2.2 mph SW3.5 kmh SW 3.8 mph6.1 kmh 30.00 in1015.9 mb 0.00 in0.0 mm 0.00 in0.0 mm 0.00 in0.0 mm
04:30 AM 41.4°F5.2°C 18.9°F-7.3°C 40% 1.6 mph NNE2.6 kmh NNE 3.8 mph6.1 kmh 29.99 in1015.6 mb 0.00 in0.0 mm 0.00 in0.0 mm 0.00 in0.0 mm
04:45 AM 42.3°F5.7°C 19.7°F-6.8°C 40% 2.2 mph WNW3.5 kmh WNW 3.1 mph5.0 kmh 29.99 in1015.6 mb 0.00 in0.0 mm 0.00 in0.0 mm 0.00 in0.0 mm
05:00 AM 42.3°F5.7°C 18.5°F-7.5°C 38% Calm Calm 1.6 mph2.6 kmh 29.99 in1015.6 mb 0.00 in0.0 mm 0.00 in0.0 mm 0.00 in0.0 mm
05:15 AM 42.6°F5.9°C 18.8°F-7.3°C 38% 0.7 mph SE1.1 kmh SE 4.5 mph7.2 kmh 29.99 in1015.6 mb 0.00 in0.0 mm 0.00 in0.0 mm 0.00 in0.0 mm
05:30 AM 42.6°F5.9°C 18.8°F-7.3°C 38% Calm Calm 1.6 mph2.6 kmh 29.99 in1015.6 mb 0.00 in0.0 mm 0.00 in0.0 mm 0.00 in0.0 mm
05:45 AM 42.3°F5.7°C 19.7°F-6.8°C 40% 0.7 mph WSW1.1 kmh WSW 3.1 mph5.0 kmh 29.99 in1015.6 mb 0.00 in0.0 mm 0.00 in0.0 mm 0.00 in0.0 mm
06:00 AM 41.7°F5.4°C 19.2°F-7.1°C 40% 3.1 mph WSW5.0 kmh WSW 5.4 mph8.7 kmh 29.98 in1015.2 mb 0.00 in0.0 mm 0.00 in0.0 mm 0.00 in0.0 mm
06:15 AM 41.4°F5.2°C 18.9°F-7.3°C 40% 0.7 mph WSW1.1 kmh WSW 6.9 mph11.1 kmh 29.98 in1015.2 mb 0.00 in0.0 mm 0.00 in0.0 mm 0.00 in0.0 mm
06:30 AM 41.2°F5.1°C 18.7°F-7.4°C 40% 1.6 mph W2.6 kmh W 3.1 mph5.0 kmh 29.99 in1015.6 mb 0.00 in0.0 mm 0.00 in0.0 mm 0.00 in0.0 mm
06:45 AM 41.2°F5.1°C 18.7°F-7.4°C 40% 0.7 mph SW1.1 kmh SW 4.5 mph7.2 kmh 29.99 in1015.6 mb 0.00 in0.0 mm 0.00 in0.0 mm 0.00 in0.0 mm
07:00 AM 40.8°F4.9°C 19.0°F-7.2°C 41% Calm Calm 2.2 mph3.5 kmh 29.98 in1015.2 mb 0.00 in0.0 mm 0.00 in0.0 mm 0.00 in0.0 mm
07:15 AM 39.9°F4.4°C 18.2°F-7.7°C 41% 1.6 mph NE2.6 kmh NE 5.4 mph8.7 kmh 29.99 in1015.6 mb 0.00 in0.0 mm 0.00 in0.0 mm 0.00 in0.0 mm
07:30 AM 38.5°F3.6°C 17.4°F-8.1°C 42% 0.7 mph E1.1 kmh E 4.5 mph7.2 kmh 29.98 in1015.2 mb 0.00 in0.0 mm 0.00 in0.0 mm 0.00 in0.0 mm
07:45 AM 38.8°F3.8°C 18.3°F-7.6°C 43% 2.2 mph WSW3.5 kmh WSW 3.1 mph5.0 kmh 29.98 in1015.2 mb 0.00 in0.0 mm 0.00 in0.0 mm 0.00 in0.0 mm
08:00 AM 41.2°F5.1°C 19.9°F-6.7°C 42% 4.5 mph WSW7.2 kmh WSW 6.0 mph9.7 kmh 29.98 in1015.2 mb 0.00 in0.0 mm 0.00 in0.0 mm 0.00 in0.0 mm
08:15 AM 44.6°F7.0°C 17.3°F-8.2°C 33% 5.4 mph W8.7 kmh W 7.6 mph12.2 kmh 29.97 in1014.9 mb 0.00 in0.0 mm 0.00 in0.0 mm 0.00 in0.0 mm
08:30 AM 48.0°F8.9°C 18.1°F-7.7°C 30% 3.1 mph W5.0 kmh W 8.3 mph13.4 kmh 29.97 in1014.9 mb 0.00 in0.0 mm 0.00 in0.0 mm 0.00 in0.0 mm
08:45 AM 44.8°F7.1°C 16.0°F-8.9°C 31% 1.6 mph ENE2.6 kmh ENE 7.6 mph12.2 kmh 29.98 in1015.2 mb 0.00 in0.0 mm 0.00 in0.0 mm 0.00 in0.0 mm
09:00 AM 43.2°F6.2°C 21.1°F-6.1°C 41% 1.6 mph E2.6 kmh E 3.8 mph6.1 kmh 29.98 in1015.2 mb 0.00 in0.0 mm 0.00 in0.0 mm 0.00 in0.0 mm
09:15 AM 43.7°F6.5°C 22.1°F-5.5°C 42% 2.2 mph NE3.5 kmh NE 3.1 mph5.0 kmh 29.97 in1014.9 mb 0.00 in0.0 mm 0.00 in0.0 mm 0.00 in0.0 mm
09:30 AM 46.4°F8.0°C 20.3°F-6.5°C 35% 1.6 mph E2.6 kmh E 3.8 mph6.1 kmh 29.98 in1015.2 mb 0.00 in0.0 mm 0.00 in0.0 mm 0.00 in0.0 mm
09:45 AM 48.4°F9.1°C 20.6°F-6.3°C 33% 1.6 mph E2.6 kmh E 3.1 mph5.0 kmh 29.98 in1015.2 mb 0.00 in0.0 mm 0.00 in0.0 mm 0.00 in0.0 mm
10:00 AM 49.6°F9.8°C 21.0°F-6.1°C 32% 3.1 mph E5.0 kmh E 5.4 mph8.7 kmh 29.97 in1014.9 mb 0.00 in0.0 mm 0.00 in0.0 mm 0.00 in0.0 mm
10:15 AM 50.4°F10.2°C 21.6°F-5.8°C 32% 2.2 mph ENE3.5 kmh ENE 5.4 mph8.7 kmh 29.97 in1014.9 mb 0.00 in0.0 mm 0.00 in0.0 mm 0.00 in0.0 mm
10:30 AM 51.3°F10.7°C 21.7°F-5.7°C 31% 5.4 mph E8.7 kmh E 6.9 mph11.1 kmh 29.97 in1014.9 mb 0.00 in0.0 mm 0.00 in0.0 mm 0.00 in0.0 mm
10:45 AM 51.3°F10.7°C 20.9°F-6.2°C 30% 4.5 mph ENE7.2 kmh ENE 7.6 mph12.2 kmh 29.97 in1014.9 mb 0.00 in0.0 mm 0.00 in0.0 mm 0.00 in0.0 mm
11:00 AM 51.6°F10.9°C 22.0°F-5.6°C 31% 2.2 mph E3.5 kmh E 5.4 mph8.7 kmh 29.97 in1014.9 mb 0.00 in0.0 mm 0.00 in0.0 mm 0.00 in0.0 mm
11:15 AM 51.8°F11.0°C 22.1°F-5.5°C 31% 3.1 mph E5.0 kmh E 6.0 mph9.7 kmh 29.97 in1014.9 mb 0.00 in0.0 mm 0.00 in0.0 mm 0.00 in0.0 mm
11:30 AM 52.0°F11.1°C 22.3°F-5.4°C 31% 4.5 mph ENE7.2 kmh ENE 8.3 mph13.4 kmh 29.96 in1014.6 mb 0.00 in0.0 mm 0.00 in0.0 mm 0.00 in0.0 mm
11:45 AM 53.2°F11.8°C 21.0°F-6.1°C 28% 2.2 mph E3.5 kmh E 9.2 mph14.8 kmh 29.96 in1014.6 mb 0.00 in0.0 mm 0.00 in0.0 mm 0.00 in0.0 mm
12:00 PM 53.8°F12.1°C 19.7°F-6.8°C 26% 5.4 mph NE8.7 kmh NE 7.6 mph12.2 kmh 29.95 in1014.2 mb 0.00 in0.0 mm 0.00 in0.0 mm 0.00 in0.0 mm
12:15 PM 53.6°F12.0°C 19.6°F-6.9°C 26% 3.8 mph NE6.1 kmh NE 9.8 mph15.8 kmh 29.95 in1014.2 mb 0.00 in0.0 mm 0.00 in0.0 mm 0.00 in0.0 mm
12:30 PM 54.0°F12.2°C 19.9°F-6.7°C 26% 4.5 mph ENE7.2 kmh ENE 9.2 mph14.8 kmh 29.95 in1014.2 mb 0.00 in0.0 mm 0.00 in0.0 mm 0.00 in0.0 mm
12:45 PM 54.7°F12.6°C 20.5°F-6.4°C 26% 6.9 mph ENE11.1 kmh ENE 8.3 mph13.4 kmh 29.94 in1013.9 mb 0.00 in0.0 mm 0.00 in0.0 mm 0.00 in0.0 mm
01:00 PM 54.7°F12.6°C 20.5°F-6.4°C 26% 6.9 mph ENE11.1 kmh ENE 10.7 mph17.2 kmh 29.93 in1013.5 mb 0.00 in0.0 mm 0.00 in0.0 mm 0.00 in0.0 mm
01:15 PM 55.2°F12.9°C 21.0°F-6.1°C 26% 6.0 mph E9.7 kmh E 7.6 mph12.2 kmh 29.93 in1013.5 mb 0.00 in0.0 mm 0.00 in0.0 mm 0.00 in0.0 mm
01:30 PM 55.4°F13.0°C 21.1°F-6.1°C 26% 2.2 mph NE3.5 kmh NE 8.3 mph13.4 kmh 29.91 in1012.9 mb 0.00 in0.0 mm 0.00 in0.0 mm 0.00 in0.0 mm
01:45 PM 55.4°F13.0°C 21.1°F-6.1°C 26% 2.2 mph NE3.5 kmh NE 9.8 mph15.8 kmh 29.91 in1012.9 mb 0.00 in0.0 mm 0.00 in0.0 mm 0.00 in0.0 mm
02:00 PM 56.5°F13.6°C 23.8°F-4.6°C 28% 7.6 mph NE12.2 kmh NE 9.8 mph15.8 kmh 29.90 in1012.5 mb 0.00 in0.0 mm 0.00 in0.0 mm 0.00 in0.0 mm
02:15 PM 56.8°F13.8°C 24.1°F-4.4°C 28% 3.8 mph E6.1 kmh E 10.7 mph17.2 kmh 29.89 in1012.2 mb 0.00 in0.0 mm 0.00 in0.0 mm 0.00 in0.0 mm
02:30 PM 56.7°F13.7°C 23.9°F-4.5°C 28% 3.1 mph ENE5.0 kmh ENE 8.3 mph13.4 kmh 29.89 in1012.2 mb 0.00 in0.0 mm 0.00 in0.0 mm 0.00 in0.0 mm
02:45 PM 56.7°F13.7°C 25.6°F-3.6°C 30% 5.4 mph E8.7 kmh E 10.7 mph17.2 kmh 29.88 in1011.9 mb 0.00 in0.0 mm 0.00 in0.0 mm 0.00 in0.0 mm
03:00 PM 57.2°F14.0°C 26.1°F-3.3°C 30% 6.0 mph ENE9.7 kmh ENE 9.8 mph15.8 kmh 29.87 in1011.5 mb 0.00 in0.0 mm 0.00 in0.0 mm 0.00 in0.0 mm
03:15 PM 57.4°F14.1°C 27.0°F-2.8°C 31% 8.3 mph ENE13.4 kmh ENE 10.7 mph17.2 kmh 29.86 in1011.2 mb 0.00 in0.0 mm 0.00 in0.0 mm 0.00 in0.0 mm
03:30 PM 57.2°F14.0°C 28.4°F-2.0°C 33% 6.9 mph ENE11.1 kmh ENE 9.8 mph15.8 kmh 29.86 in1011.2 mb 0.00 in0.0 mm 0.00 in0.0 mm 0.00 in0.0 mm
03:45 PM 57.2°F14.0°C 29.1°F-1.6°C 34% 7.6 mph E12.2 kmh E 9.8 mph15.8 kmh 29.86 in1011.2 mb 0.00 in0.0 mm 0.00 in0.0 mm 0.00 in0.0 mm
04:00 PM 57.0°F13.9°C 29.7°F-1.3°C 35% 5.4 mph ENE8.7 kmh ENE 9.2 mph14.8 kmh 29.86 in1011.2 mb 0.00 in0.0 mm 0.00 in0.0 mm 0.00 in0.0 mm
04:15 PM 56.3°F13.5°C 29.7°F-1.3°C 36% 3.1 mph ENE5.0 kmh ENE 8.3 mph13.4 kmh 29.85 in1010.8 mb 0.00 in0.0 mm 0.00 in0.0 mm 0.00 in0.0 mm
04:30 PM 55.8°F13.2°C 29.9°F-1.2°C 37% 0.7 mph E1.1 kmh E 5.4 mph8.7 kmh 29.85 in1010.8 mb 0.00 in0.0 mm 0.00 in0.0 mm 0.00 in0.0 mm
04:45 PM 55.0°F12.8°C 31.2°F-0.4°C 40% 3.1 mph E5.0 kmh E 7.6 mph12.2 kmh 29.85 in1010.8 mb 0.00 in0.0 mm 0.00 in0.0 mm 0.00 in0.0 mm
05:00 PM 54.1°F12.3°C 32.7°F0.4°C 44% 5.4 mph NE8.7 kmh NE 6.9 mph11.1 kmh 29.84 in1010.5 mb 0.00 in0.0 mm 0.00 in0.0 mm 0.00 in0.0 mm
05:15 PM 53.1°F11.7°C 34.9°F1.6°C 50% 5.4 mph NE8.7 kmh NE 7.6 mph12.2 kmh 29.84 in1010.5 mb 0.00 in0.0 mm 0.00 in0.0 mm 0.00 in0.0 mm
05:30 PM 52.5°F11.4°C 35.9°F2.2°C 53% 1.6 mph ENE2.6 kmh ENE 4.5 mph7.2 kmh 29.85 in1010.8 mb 0.00 in0.0 mm 0.00 in0.0 mm 0.00 in0.0 mm
05:45 PM 52.3°F11.3°C 35.7°F2.1°C 53% 2.2 mph NE3.5 kmh NE 3.8 mph6.1 kmh 29.84 in1010.5 mb 0.00 in0.0 mm 0.00 in0.0 mm 0.00 in0.0 mm
06:00 PM 52.2°F11.2°C 35.6°F2.0°C 53% Calm Calm 1.6 mph2.6 kmh 29.84 in1010.5 mb 0.00 in0.0 mm 0.00 in0.0 mm 0.00 in0.0 mm
06:15 PM 52.2°F11.2°C 36.0°F2.2°C 54% 3.1 mph E5.0 kmh E 3.8 mph6.1 kmh 29.84 in1010.5 mb 0.00 in0.0 mm 0.00 in0.0 mm 0.00 in0.0 mm
06:30 PM 51.8°F11.0°C 36.2°F2.3°C 55% Calm Calm 3.1 mph5.0 kmh 29.83 in1010.2 mb 0.00 in0.0 mm 0.00 in0.0 mm 0.00 in0.0 mm
06:45 PM 51.4°F10.8°C 35.8°F2.1°C 55% 0.7 mph ESE1.1 kmh ESE 2.2 mph3.5 kmh 29.84 in1010.5 mb 0.00 in0.0 mm 0.00 in0.0 mm 0.00 in0.0 mm
07:00 PM 51.3°F10.7°C 37.0°F2.8°C 58% 6.0 mph W9.7 kmh W 8.3 mph13.4 kmh 29.84 in1010.5 mb 0.00 in0.0 mm 0.00 in0.0 mm 0.00 in0.0 mm
07:15 PM 50.9°F10.5°C 36.7°F2.6°C 58% 0.7 mph W1.1 kmh W 6.9 mph11.1 kmh 29.84 in1010.5 mb 0.00 in0.0 mm 0.00 in0.0 mm 0.00 in0.0 mm
07:30 PM 50.9°F10.5°C 36.7°F2.6°C 58% 3.1 mph WSW5.0 kmh WSW 7.6 mph12.2 kmh 29.85 in1010.8 mb 0.00 in0.0 mm 0.00 in0.0 mm 0.00 in0.0 mm
07:45 PM 50.5°F10.3°C 36.3°F2.4°C 58% 2.2 mph WSW3.5 kmh WSW 6.0 mph9.7 kmh 29.84 in1010.5 mb 0.00 in0.0 mm 0.00 in0.0 mm 0.00 in0.0 mm
08:00 PM 50.2°F10.1°C 36.8°F2.7°C 60% 5.4 mph WSW8.7 kmh WSW 9.2 mph14.8 kmh 29.85 in1010.8 mb 0.00 in0.0 mm 0.00 in0.0 mm 0.00 in0.0 mm
08:15 PM 49.6°F9.8°C 36.8°F2.7°C 61% 1.6 mph WSW2.6 kmh WSW 7.6 mph12.2 kmh 29.85 in1010.8 mb 0.00 in0.0 mm 0.00 in0.0 mm 0.00 in0.0 mm
08:30 PM 49.3°F9.6°C 36.4°F2.4°C 61% 2.2 mph SW3.5 kmh SW 3.8 mph6.1 kmh 29.85 in1010.8 mb 0.00 in0.0 mm 0.00 in0.0 mm 0.00 in0.0 mm
08:45 PM 48.2°F9.0°C 36.2°F2.3°C 63% 0.7 mph WSW1.1 kmh WSW 2.2 mph3.5 kmh 29.85 in1010.8 mb 0.00 in0.0 mm 0.00 in0.0 mm 0.00 in0.0 mm
09:00 PM 47.7°F8.7°C 36.1°F2.3°C 64% Calm Calm 2.2 mph3.5 kmh 29.86 in1011.2 mb 0.00 in0.0 mm 0.00 in0.0 mm 0.00 in0.0 mm
09:15 PM 47.1°F8.4°C 35.2°F1.8°C 63% 0.7 mph WNW1.1 kmh WNW 1.6 mph2.6 kmh 29.86 in1011.2 mb 0.00 in0.0 mm 0.00 in0.0 mm 0.00 in0.0 mm
09:30 PM 46.6°F8.1°C 34.3°F1.3°C 62% 0.7 mph E1.1 kmh E 1.6 mph2.6 kmh 29.86 in1011.2 mb 0.00 in0.0 mm 0.00 in0.0 mm 0.00 in0.0 mm
09:45 PM 46.4°F8.0°C 35.3°F1.8°C 65% 0.7 mph E1.1 kmh E 2.2 mph3.5 kmh 29.87 in1011.5 mb 0.00 in0.0 mm 0.00 in0.0 mm 0.00 in0.0 mm
10:00 PM 46.0°F7.8°C 35.7°F2.1°C 67% Calm Calm 2.2 mph3.5 kmh 29.87 in1011.5 mb 0.00 in0.0 mm 0.00 in0.0 mm 0.00 in0.0 mm
10:15 PM 45.7°F7.6°C 36.1°F2.3°C 69% 0.7 mph E1.1 kmh E 1.6 mph2.6 kmh 29.88 in1011.9 mb 0.00 in0.0 mm 0.00 in0.0 mm 0.00 in0.0 mm
10:30 PM 45.5°F7.5°C 36.3°F2.4°C 70% 1.6 mph ENE2.6 kmh ENE 2.2 mph3.5 kmh 29.88 in1011.9 mb 0.00 in0.0 mm 0.00 in0.0 mm 0.00 in0.0 mm
10:45 PM 45.3°F7.4°C 36.5°F2.5°C 71% Calm Calm 2.2 mph3.5 kmh 29.88 in1011.9 mb 0.00 in0.0 mm 0.00 in0.0 mm 0.00 in0.0 mm
11:00 PM 44.8°F7.1°C 35.6°F2.0°C 70% Calm Calm 1.6 mph2.6 kmh 29.89 in1012.2 mb 0.00 in0.0 mm 0.00 in0.0 mm 0.00 in0.0 mm
11:15 PM 44.6°F7.0°C 35.4°F1.9°C 70% Calm Calm 1.6 mph2.6 kmh 29.89 in1012.2 mb 0.00 in0.0 mm 0.00 in0.0 mm 0.00 in0.0 mm
11:30 PM 44.8°F7.1°C 36.0°F2.2°C 71% Calm Calm 1.6 mph2.6 kmh 29.90 in1012.5 mb 0.00 in0.0 mm 0.00 in0.0 mm 0.00 in0.0 mm
11:45 PM 44.4°F6.9°C 35.6°F2.0°C 71% Calm Calm 1.6 mph2.6 kmh 29.89 in1012.2 mb 0.00 in0.0 mm 0.00 in0.0 mm 0.00 in0.0 mm